ENGMLPMA

Guest
Details From ENGM - Oslo Gardermoen
To LPMA - Madeira
Flight Number -
Tags decoded
Created
Modified
Stats Distance 1,984 nm / 3,675 km
Max Altitude 0 ft / 0 m
Waypoints 5
Social Downloads 0
Likes 0
Share VATSIM

Download

Looking for another format? Having issues loading an existing format? Contact us
Advertisement - Login to hide

Notes

Requested: ENGM PECKY LIDRO BIMBO FUN FUN7 MA05 LPMA Unmatched points: FUN7 MA05

Route

ENGM PECKY LIDRO FUN LPMA

ID Type Via Altitude Latitude Longitude Leg Dist Tot Dist Heading (true) Name
O ENGM APT - 0 ft / 0 m 60.19451˚ 11.09900˚ - 0 nm - Oslo Gardermoen
PECKY FIX - 0 ft / 0 m 34.53028˚ -15.33778˚ 1852 nm 1852 nm 226° / 206° -
LIDRO FIX - 0 ft / 0 m 33.66750˚ -15.94972˚ 60 nm 1912 nm 211° / 210° -
FUN VOR - 0 ft / 0 m 32.74704˚ -16.70569˚ 67 nm 1979 nm 215° / 214° MADEIRA VOR-DME
O LPMA APT - 0 ft / 0 m 32.69770˚ -16.77445˚ 4 nm 1984 nm 230° / 230° Madeira

Altitude Profile

Advertisement - Login to hide

Weather


0- 5 10 15 20 25 30 35+ Temperature / ° C

Clouds and Precipitation
Forecast for 2018-05-20 18:00 UTC. Updated 2 hours ago

Ground ~20,000 ft ~40,000 ft Winds

ENGM

Details ICAO ENGM (OSL)
Name Oslo Gardermoen
Region Norway
Timezone Europe/Oslo (UTC+2.0)
Stats Elevation 681 ft / 208 m (AMSL)
Location 60.194507° 11.098998°
Runways 2
Magnetic Variation 3.459° E

METAR

ENGM 201920Z 19010KT CAVOK 16/07 Q1024 NOSIG

Decode

TAF

TAF ENGM 201700Z 2018/2118 20015KT CAVOK BECMG 2019/2021 18005KT

Decode

Departure Runways

ID Width Length Bearing (true) Bearing (mag) Surface Threshold Offset Overrun Length
01L 148 ft / 45 m 12,144 ft / 3,702 m 15.89° 12.43° Concrete 0 ft / 0 m 499 ft / 152 m
01R 148 ft / 45 m 10,014 ft / 3,052 m 15.89° 12.43° Concrete 0 ft / 0 m 499 ft / 152 m
19L 148 ft / 45 m 10,014 ft / 3,052 m 195.91° 192.45° Concrete 0 ft / 0 m 466 ft / 142 m
19R 148 ft / 45 m 12,144 ft / 3,702 m 195.91° 192.45° Concrete 0 ft / 0 m 482 ft / 147 m

LPMA

Details ICAO LPMA (FNC)
Name Madeira
Region Portugal
Timezone Atlantic/Madeira (UTC+1.0)
Stats Elevation 192 ft / 59 m (AMSL)
Location 32.697704° -16.774449°
Runways 1
Magnetic Variation 4.929° W

METAR

LPMA 201930Z 02007KT 340V050 9999 FEW018 18/09 Q1017

Decode

TAF

TAF LPMA 201630Z 2018/2118 VRB05KT 9999 SCT016 SCT030 TEMPO 2018/2118 36010KT BKN015

Decode

Destination Runways

ID Width Length Bearing (true) Bearing (mag) Surface Threshold Offset Overrun Length
05 141 ft / 43 m 8,683 ft / 2,647 m 42.98° 47.91° Asphalt 472 ft / 144 m 0 ft / 0 m
23 141 ft / 43 m 8,683 ft / 2,647 m 222.99° 227.92° Asphalt 466 ft / 142 m 0 ft / 0 m

Popular Alternatives